Terminal Aerodrome Forecast
Issued by NWS

Home | Current Version | Previous Version | Graphics & Text | Print | Product List | Glossary On
Versions: 1 2 3 4 5 6 7 8 9 10 11 12 13 14 15 16 17
000
FTUS43 KGRB 261600 AAA
TAFAUW
TAF AMD
KAUW 261641Z 2617/2712 34006KT P6SM FEW025
     FM261800 36007KT P6SM SCT030
      TEMPO 2618/2620 BKN028
     FM262100 30004KT P6SM SKC=

USA.gov is the U.S. government's official web portal to all federal, state and local government web resources and services.